首页
METAR-TAF:

METAR-TAF

机场 :

Ottumwa Industrial Airport

Ottumwa, 艾奥瓦州, 美国

纬度: 41-06-24N, 经度: 092-26-53W, 海拔: 258米

当前天气观测

该预报发布于1小时和0分钟前的08:53 UTC
风速12节,风向南转南东
温度 -3°C
湿度 80%
气压 1023 hPa
能見度: 16.1公里
天空无云

METAR: KOTM 120853Z AUTO 15012KT 10SM CLR M03/M06 A3020 RMK AO2 SLP238 T10281061 56024

时间: 03:53 (09:53 UTC)

预报

该预报发布于4小时和22分钟前的05:31 UTC
预报有效从12日的 06点(UTC)到 13日的 06点(UTC)
风速10节,风向东南
能見度: 10公里
多云层高于20000英尺
从 12日的 1400点(UTC)
风速12节,风向南转西南
能見度: 10公里
阴天层高于5000英尺
从 12日的 1700点(UTC)
风速14节,风向西南,有时为31节阵风
能見度: 10公里
阴天层高于3500英尺
从 13日的 0100点(UTC)
风速5节,风向西南
能見度: 10公里
阴天层高于3000英尺

TAF: KOTM 120531Z 1206/1306 13010KT P6SM BKN200 WS020/18040KT FM121400 20012KT P6SM OVC050 WS020/21050KT FM121700 22014G31KT P6SM OVC035 FM130100 23005KT P6SM OVC030

超过4000个机场的气象观测和天气预报(METAR&TAF报告)。

可查询的气象台以黄色和红色小点在地图上表示。

将鼠标移到小点上方,可查看气象台名称。

然后点击查看天气观测和预报。

如需切换地图:点击带黑十字的绿色按钮放大地图;点击带横线的绿色按钮缩小地图;或者点击绿色箭头查看邻近地区的地图。


METAR-TAF: